createdAt,value
2022-10-22T00:01:31.825Z,13.40
2022-10-22T00:03:59.129Z,13.41
2022-10-22T00:06:26.586Z,13.41
2022-10-22T00:08:55.201Z,13.37
2022-10-22T00:11:22.539Z,13.33
2022-10-22T00:13:49.799Z,13.28
2022-10-22T00:16:17.069Z,13.29
2022-10-22T00:18:44.283Z,13.25
2022-10-22T00:21:12.083Z,13.24
2022-10-22T00:23:40.511Z,13.27
2022-10-22T00:26:09.820Z,13.22
2022-10-22T00:28:37.214Z,13.27
2022-10-22T00:31:04.994Z,13.21
2022-10-22T00:33:32.494Z,13.18
2022-10-22T00:35:59.952Z,13.10
2022-10-22T00:38:27.173Z,13.18
2022-10-22T00:40:54.488Z,13.25
2022-10-22T00:43:23.514Z,13.21
2022-10-22T00:45:50.883Z,13.20
2022-10-22T00:48:21.915Z,13.13
2022-10-22T00:50:51.447Z,13.17
2022-10-22T00:53:22.629Z,13.16
2022-10-22T00:55:52.949Z,13.12
2022-10-22T00:58:26.045Z,13.16
2022-10-22T01:00:54.368Z,13.24
2022-10-22T01:03:21.746Z,13.18
2022-10-22T01:05:54.933Z,13.16
2022-10-22T01:08:29.055Z,13.16
2022-10-22T01:11:09.983Z,13.18
2022-10-22T01:13:48.962Z,13.13
2022-10-22T01:16:22.465Z,13.18
2022-10-22T01:18:56.355Z,13.11
2022-10-22T01:21:31.117Z,13.09
2022-10-22T01:24:23.432Z,13.09
2022-10-22T01:27:03.770Z,13.05
2022-10-22T01:29:37.377Z,13.06
2022-10-22T01:32:10.855Z,13.11
2022-10-22T01:34:41.218Z,13.10
2022-10-22T01:37:10.404Z,13.04
2022-10-22T01:39:40.239Z,13.05
2022-10-22T01:42:07.480Z,13.00
2022-10-22T01:47:17.074Z,12.97
2022-10-22T01:50:26.952Z,12.99
2022-10-22T01:53:11.742Z,12.95
2022-10-22T01:55:48.164Z,12.95
2022-10-22T01:58:27.232Z,12.94
2022-10-22T02:01:01.635Z,12.92
2022-10-22T02:03:37.890Z,12.87
2022-10-22T02:06:12.107Z,12.87
2022-10-22T02:08:40.857Z,12.83
2022-10-22T02:11:08.318Z,12.89
2022-10-22T02:13:40.335Z,12.93
2022-10-22T02:16:13.606Z,12.89
2022-10-22T02:18:44.974Z,12.91
2022-10-22T02:21:12.478Z,12.87
2022-10-22T02:23:39.926Z,12.87
2022-10-22T02:26:21.955Z,12.92
2022-10-22T02:28:57.606Z,12.95
2022-10-22T02:31:29.222Z,12.91
2022-10-22T02:34:01.337Z,12.88
2022-10-22T02:36:29.357Z,12.84
2022-10-22T02:38:57.007Z,12.80
2022-10-22T02:41:24.426Z,12.80
2022-10-22T02:43:54.822Z,12.80
2022-10-22T02:46:23.039Z,12.83
2022-10-22T02:48:51.611Z,12.85
2022-10-22T02:51:19.143Z,12.84
2022-10-22T02:53:46.419Z,12.91
2022-10-22T02:56:13.952Z,12.96
2022-10-22T02:58:41.273Z,13.01
2022-10-22T03:01:10.310Z,13.02
2022-10-22T03:03:39.684Z,13.03
2022-10-22T03:06:08.690Z,13.07
2022-10-22T03:08:36.531Z,13.04
2022-10-22T03:11:03.787Z,13.05
2022-10-22T03:13:31.094Z,13.00
2022-10-22T03:15:58.397Z,13.02
2022-10-22T03:18:25.732Z,13.01
2022-10-22T03:21:01.995Z,12.98
2022-10-22T03:23:31.765Z,12.92
2022-10-22T03:28:31.709Z,12.91
2022-10-22T03:30:59.011Z,12.87
2022-10-22T03:33:26.251Z,12.85
2022-10-22T03:35:53.583Z,12.82
2022-10-22T03:38:20.893Z,12.77
2022-10-22T03:40:49.871Z,12.84
2022-10-22T03:43:17.591Z,12.85
2022-10-22T03:45:44.945Z,12.85
2022-10-22T03:48:12.312Z,12.96
2022-10-22T03:50:39.553Z,12.94
2022-10-22T03:53:06.746Z,12.95
2022-10-22T03:55:34.027Z,12.93
2022-10-22T03:58:02.779Z,12.88
2022-10-22T04:00:29.976Z,12.86
2022-10-22T04:02:57.248Z,12.90
2022-10-22T04:05:24.495Z,12.93
2022-10-22T04:07:51.941Z,12.88
2022-10-22T04:10:19.167Z,12.89
2022-10-22T04:12:47.689Z,12.92
2022-10-22T04:15:16.512Z,12.89
2022-10-22T04:17:44.064Z,12.86
2022-10-22T04:20:11.579Z,12.90
2022-10-22T04:22:39.049Z,12.82
2022-10-22T04:25:06.478Z,12.77
2022-10-22T04:27:34.117Z,12.71
2022-10-22T04:30:01.884Z,12.69
2022-10-22T04:32:30.585Z,12.71
2022-10-22T04:34:57.794Z,12.64
2022-10-22T04:37:25.016Z,12.67
2022-10-22T04:39:52.212Z,12.69
2022-10-22T04:42:19.399Z,12.64
2022-10-22T04:44:46.589Z,12.65
2022-10-22T04:47:13.742Z,12.69
2022-10-22T04:49:42.364Z,12.68
2022-10-22T04:52:09.575Z,12.61
2022-10-22T04:54:36.914Z,12.61
2022-10-22T04:57:04.286Z,12.59
2022-10-22T04:59:31.751Z,12.52
2022-10-22T05:01:59.000Z,12.55
2022-10-22T05:04:26.264Z,12.47
2022-10-22T05:06:54.851Z,12.46
2022-10-22T05:09:22.181Z,12.45
2022-10-22T05:11:52.573Z,12.45
2022-10-22T05:14:22.179Z,12.50
2022-10-22T05:16:50.465Z,12.43
2022-10-22T05:19:20.256Z,12.43
2022-10-22T05:21:47.495Z,12.43
2022-10-22T05:24:16.054Z,12.42
2022-10-22T05:26:43.261Z,12.47
2022-10-22T05:29:10.539Z,12.51
2022-10-22T05:31:37.996Z,12.48
2022-10-22T05:34:05.225Z,12.51
2022-10-22T05:36:32.581Z,12.54
2022-10-22T05:38:59.870Z,12.51
2022-10-22T05:41:28.923Z,12.51
2022-10-22T05:43:57.279Z,12.52
2022-10-22T05:46:26.790Z,12.52
2022-10-22T05:48:55.858Z,12.60
2022-10-22T05:51:24.420Z,12.58
2022-10-22T05:53:53.021Z,12.68
2022-10-22T05:56:20.597Z,12.64
2022-10-22T05:58:49.283Z,12.70
2022-10-22T06:01:18.483Z,12.68
2022-10-22T06:03:46.990Z,12.59
2022-10-22T06:06:19.565Z,12.62
2022-10-22T06:08:47.817Z,12.58
2022-10-22T06:11:15.549Z,12.59
2022-10-22T06:13:42.705Z,12.64
2022-10-22T06:16:11.365Z,12.66
2022-10-22T06:18:38.567Z,12.62
2022-10-22T06:21:06.410Z,12.62
2022-10-22T06:23:33.649Z,12.64
2022-10-22T06:26:01.542Z,12.57
2022-10-22T06:28:29.061Z,12.51
2022-10-22T06:30:57.649Z,12.52
2022-10-22T06:33:26.603Z,12.53
2022-10-22T06:35:54.062Z,12.58
2022-10-22T06:38:21.640Z,12.57
2022-10-22T06:40:48.939Z,12.53
2022-10-22T06:43:16.220Z,12.63
2022-10-22T06:45:43.429Z,12.64
2022-10-22T06:48:10.624Z,12.70
2022-10-22T06:50:39.225Z,12.69
2022-10-22T06:53:06.538Z,12.70
2022-10-22T06:55:35.676Z,12.74
2022-10-22T06:58:02.939Z,12.75
2022-10-22T07:00:30.155Z,12.81
2022-10-22T07:02:59.178Z,12.83
2022-10-22T07:05:27.267Z,12.90
2022-10-22T07:07:55.854Z,12.96
2022-10-22T07:10:25.974Z,13.10
2022-10-22T07:12:55.755Z,13.13
2022-10-22T07:15:23.005Z,13.20
2022-10-22T07:17:50.269Z,13.24
2022-10-22T07:20:17.612Z,13.26
2022-10-22T07:22:45.076Z,13.29
2022-10-22T07:25:13.715Z,13.34
2022-10-22T07:27:41.143Z,13.40
2022-10-22T07:30:09.563Z,13.45
2022-10-22T07:32:36.823Z,13.52
2022-10-22T07:35:04.694Z,13.63
2022-10-22T07:37:32.034Z,13.65
2022-10-22T07:40:02.973Z,13.71
2022-10-22T07:42:32.859Z,13.81
2022-10-22T07:45:00.010Z,13.83
2022-10-22T07:47:27.221Z,13.91
2022-10-22T07:49:54.465Z,14.01
2022-10-22T07:52:21.726Z,14.00
2022-10-22T07:54:48.945Z,14.15
2022-10-22T07:57:16.194Z,14.11
2022-10-22T07:59:46.073Z,14.09
2022-10-22T08:02:13.316Z,14.21
2022-10-22T08:04:40.607Z,14.13
2022-10-22T08:07:07.861Z,14.17
2022-10-22T08:09:35.125Z,14.14
2022-10-22T08:12:02.601Z,14.14
2022-10-22T08:14:29.916Z,14.16
2022-10-22T08:16:58.582Z,14.20
2022-10-22T08:19:26.013Z,14.28
2022-10-22T08:21:53.270Z,14.24
2022-10-22T08:24:20.557Z,14.37
2022-10-22T08:26:48.032Z,14.51
2022-10-22T08:29:15.480Z,14.58
2022-10-22T08:31:44.791Z,14.55
2022-10-22T08:34:13.472Z,14.61
2022-10-22T08:36:40.707Z,14.72
2022-10-22T08:39:08.113Z,14.93
2022-10-22T08:41:44.422Z,14.96
2022-10-22T08:44:28.643Z,15.02
2022-10-22T08:47:18.639Z,15.09
2022-10-22T08:49:50.607Z,15.15
2022-10-22T08:52:19.814Z,15.50
2022-10-22T08:54:51.906Z,15.61
2022-10-22T08:57:47.565Z,15.63
2022-10-22T09:00:23.446Z,15.66
2022-10-22T09:03:06.669Z,15.79
2022-10-22T09:05:45.919Z,15.89
2022-10-22T09:08:16.098Z,16.02
2022-10-22T09:10:47.963Z,16.12
2022-10-22T09:13:18.891Z,16.10
2022-10-22T09:15:49.368Z,16.23
2022-10-22T09:18:30.300Z,16.27
2022-10-22T09:21:12.138Z,16.27
2022-10-22T09:23:52.623Z,16.24
2022-10-22T09:26:19.810Z,16.20
2022-10-22T09:28:50.289Z,16.21
2022-10-22T09:31:18.074Z,16.38
2022-10-22T09:33:46.957Z,16.50
2022-10-22T09:36:18.022Z,16.73
2022-10-22T09:38:48.325Z,16.79
2022-10-22T09:41:17.340Z,16.72
2022-10-22T09:43:47.096Z,16.82
2022-10-22T09:46:17.088Z,16.94
2022-10-22T09:48:48.502Z,17.11
2022-10-22T09:51:19.983Z,17.22
2022-10-22T09:53:54.882Z,17.52
2022-10-22T09:56:26.541Z,17.77
2022-10-22T09:58:56.510Z,17.88
2022-10-22T10:01:25.965Z,18.26
2022-10-22T10:03:53.966Z,19.15
2022-10-22T10:06:23.324Z,19.57
2022-10-22T10:08:50.781Z,19.80
2022-10-22T10:11:29.208Z,19.57
2022-10-22T10:14:06.958Z,20.31
2022-10-22T10:16:44.611Z,19.61
2022-10-22T10:19:26.228Z,19.76
2022-10-22T10:22:04.554Z,19.69
2022-10-22T10:24:45.357Z,19.65
2022-10-22T10:27:20.668Z,19.13
2022-10-22T10:29:56.915Z,18.96
2022-10-22T10:32:43.999Z,19.35
2022-10-22T10:35:23.886Z,19.38
2022-10-22T10:38:03.429Z,19.15
2022-10-22T10:40:42.436Z,19.17
2022-10-22T10:43:13.457Z,19.52
2022-10-22T10:45:55.745Z,19.90
2022-10-22T10:48:44.628Z,20.20
2022-10-22T10:51:24.262Z,19.78
2022-10-22T10:54:04.957Z,19.66
2022-10-22T10:56:39.586Z,19.78
2022-10-22T10:59:19.089Z,20.38
2022-10-22T11:01:59.787Z,20.48
2022-10-22T11:04:50.625Z,20.66
2022-10-22T11:07:34.215Z,20.57
2022-10-22T11:10:13.838Z,20.09
2022-10-22T11:12:44.393Z,19.64
2022-10-22T11:15:21.913Z,19.31
2022-10-22T11:17:49.375Z,19.94
2022-10-22T11:20:19.947Z,21.00
2022-10-22T11:23:17.718Z,20.35
2022-10-22T11:25:44.592Z,19.78
2022-10-22T11:30:45.818Z,19.82
2022-10-22T11:33:18.702Z,19.73
2022-10-22T11:35:48.171Z,19.35
2022-10-22T11:38:18.175Z,18.78
2022-10-22T11:40:48.406Z,19.16
2022-10-22T11:43:27.736Z,19.18
2022-10-22T11:46:02.128Z,18.86
2022-10-22T11:48:37.615Z,18.71
2022-10-22T11:51:29.543Z,18.58
2022-10-22T11:53:58.330Z,18.67
2022-10-22T11:56:36.314Z,18.95
2022-10-22T11:59:08.015Z,19.77
2022-10-22T12:01:42.990Z,20.09
2022-10-22T12:04:19.675Z,19.67
2022-10-22T12:06:54.828Z,19.16
2022-10-22T12:09:23.672Z,19.15
2022-10-22T12:11:52.572Z,19.35
2022-10-22T12:14:22.462Z,19.86
2022-10-22T12:16:57.211Z,20.44
2022-10-22T12:19:29.003Z,20.21
2022-10-22T12:21:59.235Z,19.85
2022-10-22T12:24:31.441Z,19.56
2022-10-22T12:27:00.080Z,19.50
2022-10-22T12:29:27.539Z,19.09
2022-10-22T12:31:54.812Z,19.03
2022-10-22T12:34:24.209Z,18.85
2022-10-22T12:36:53.390Z,19.04
2022-10-22T12:39:25.158Z,18.90
2022-10-22T12:41:53.135Z,19.82
2022-10-22T12:44:21.840Z,20.41
2022-10-22T12:46:53.107Z,19.93
2022-10-22T12:49:33.248Z,19.33
2022-10-22T12:52:02.953Z,18.96
2022-10-22T12:54:33.482Z,19.03
2022-10-22T12:57:01.893Z,19.84
2022-10-22T12:59:34.740Z,19.35
2022-10-22T13:02:06.808Z,19.04
2022-10-22T13:04:37.771Z,18.84
2022-10-22T13:07:18.519Z,18.69
2022-10-22T13:09:58.336Z,18.63
2022-10-22T13:12:27.283Z,18.40
2022-10-22T13:14:55.852Z,18.37
2022-10-22T13:17:39.606Z,18.42
2022-10-22T13:20:17.719Z,18.34
2022-10-22T13:22:54.844Z,18.19
2022-10-22T13:25:25.286Z,18.12
2022-10-22T13:27:55.411Z,18.18
2022-10-22T13:30:26.880Z,18.06
2022-10-22T13:32:57.350Z,18.33
2022-10-22T13:35:27.752Z,19.31
2022-10-22T13:37:55.029Z,19.22
2022-10-22T13:40:22.365Z,18.71
2022-10-22T13:42:49.574Z,18.52
2022-10-22T13:45:17.392Z,18.43
2022-10-22T13:47:50.198Z,18.34
2022-10-22T13:50:20.338Z,18.37
2022-10-22T13:52:51.023Z,18.28
2022-10-22T13:55:21.577Z,18.53
2022-10-22T13:57:48.820Z,18.52
2022-10-22T14:00:18.476Z,18.53
2022-10-22T14:02:50.336Z,18.29
2022-10-22T14:05:18.203Z,18.21
2022-10-22T14:07:46.019Z,18.03
2022-10-22T14:10:19.047Z,17.92
2022-10-22T14:12:50.874Z,17.79
2022-10-22T14:15:23.046Z,17.78
2022-10-22T14:17:54.621Z,17.63
2022-10-22T14:20:24.023Z,17.45
2022-10-22T14:22:51.712Z,17.32
2022-10-22T14:25:21.338Z,17.27
2022-10-22T14:27:49.138Z,17.23
2022-10-22T14:30:18.278Z,17.25
2022-10-22T14:32:45.659Z,17.10
2022-10-22T14:35:16.461Z,17.20
2022-10-22T14:37:43.724Z,17.07
2022-10-22T14:40:14.608Z,17.10
2022-10-22T14:42:44.207Z,17.16
2022-10-22T14:45:16.309Z,17.21
2022-10-22T14:47:43.623Z,17.27
2022-10-22T14:50:11.481Z,17.36
2022-10-22T14:52:40.674Z,17.33
2022-10-22T14:55:09.180Z,17.29
2022-10-22T14:57:36.461Z,17.26
2022-10-22T15:00:05.085Z,17.25
2022-10-22T15:02:32.287Z,17.30
2022-10-22T15:04:59.553Z,17.28
2022-10-22T15:07:26.792Z,17.19
2022-10-22T15:09:55.396Z,17.13
2022-10-22T15:12:22.718Z,17.13
2022-10-22T15:14:50.049Z,17.10
2022-10-22T15:17:18.401Z,17.01
2022-10-22T15:19:45.668Z,17.03
2022-10-22T15:22:14.139Z,16.87
2022-10-22T15:24:42.137Z,16.80
2022-10-22T15:27:10.878Z,16.69
2022-10-22T15:29:38.111Z,16.66
2022-10-22T15:32:05.820Z,16.73
2022-10-22T15:34:34.982Z,16.75
2022-10-22T15:37:04.916Z,16.75
2022-10-22T15:39:32.245Z,16.72
2022-10-22T15:41:59.580Z,16.73
2022-10-22T15:44:30.405Z,16.72
2022-10-22T15:46:58.093Z,16.78
2022-10-22T15:49:27.522Z,16.76
2022-10-22T15:51:57.847Z,16.77
2022-10-22T15:54:27.323Z,16.69
2022-10-22T15:56:55.145Z,16.69
2022-10-22T15:59:22.464Z,16.68
2022-10-22T16:01:51.762Z,16.67
2022-10-22T16:04:19.537Z,16.73
2022-10-22T16:06:48.702Z,16.62
2022-10-22T16:09:17.731Z,16.52
2022-10-22T16:11:45.614Z,16.45
2022-10-22T16:14:14.873Z,16.43
2022-10-22T16:16:44.388Z,16.33
2022-10-22T16:19:14.862Z,16.25
2022-10-22T16:21:42.143Z,16.22
2022-10-22T16:24:09.868Z,16.18
2022-10-22T16:26:37.206Z,16.07
2022-10-22T16:29:05.384Z,16.05
2022-10-22T16:31:32.733Z,15.97
2022-10-22T16:34:00.195Z,15.90
2022-10-22T16:36:28.872Z,15.91
2022-10-22T16:38:56.182Z,15.85
2022-10-22T16:41:24.627Z,15.83
2022-10-22T16:43:54.931Z,15.75
2022-10-22T16:46:23.091Z,15.72
2022-10-22T16:48:52.140Z,15.71
2022-10-22T16:51:22.820Z,15.67
2022-10-22T16:53:52.887Z,15.60
2022-10-22T16:56:20.379Z,15.59
2022-10-22T16:58:49.598Z,15.53
2022-10-22T17:01:18.264Z,15.51
2022-10-22T17:03:46.048Z,15.50
2022-10-22T17:06:14.112Z,15.46
2022-10-22T17:08:42.109Z,15.43
2022-10-22T17:11:12.211Z,15.47
2022-10-22T17:13:41.299Z,15.44
2022-10-22T17:16:11.296Z,15.42
2022-10-22T17:18:40.391Z,15.43
2022-10-22T17:21:10.177Z,15.42
2022-10-22T17:23:37.513Z,15.41
2022-10-22T17:26:07.084Z,15.39
2022-10-22T17:28:36.272Z,15.36
2022-10-22T17:31:05.688Z,15.33
2022-10-22T17:33:33.349Z,15.25
2022-10-22T17:36:01.044Z,15.25
2022-10-22T17:38:28.450Z,15.20
2022-10-22T17:40:59.156Z,15.16
2022-10-22T17:43:27.989Z,15.11
2022-10-22T17:46:05.112Z,15.08
2022-10-22T17:48:33.126Z,15.02
2022-10-22T17:51:00.464Z,15.01
2022-10-22T17:53:27.741Z,14.96
2022-10-22T17:56:02.030Z,14.96
2022-10-22T17:58:29.981Z,14.92
2022-10-22T18:00:57.495Z,14.91
2022-10-22T18:03:26.378Z,14.87
2022-10-22T18:05:54.024Z,14.78
2022-10-22T18:08:22.060Z,14.76
2022-10-22T18:10:49.270Z,14.77
2022-10-22T18:13:16.492Z,14.75
2022-10-22T18:15:43.701Z,14.69
2022-10-22T18:18:10.929Z,14.72
2022-10-22T18:20:39.559Z,14.73
2022-10-22T18:23:06.834Z,14.71
2022-10-22T18:25:38.665Z,14.72
2022-10-22T18:28:05.877Z,14.69
2022-10-22T18:30:33.157Z,14.66
2022-10-22T18:33:00.484Z,14.68
2022-10-22T18:35:31.389Z,14.63
2022-10-22T18:38:00.034Z,14.57
2022-10-22T18:40:27.209Z,14.56
2022-10-22T18:42:54.412Z,14.59
2022-10-22T18:45:21.679Z,14.52
2022-10-22T18:47:48.888Z,14.48
2022-10-22T18:50:16.318Z,14.43
2022-10-22T18:52:43.890Z,14.42
2022-10-22T18:55:13.067Z,14.37
2022-10-22T18:57:40.300Z,14.31
2022-10-22T19:00:09.000Z,14.32
2022-10-22T19:02:37.592Z,14.24
2022-10-22T19:05:05.663Z,14.26
2022-10-22T19:07:32.925Z,14.18
2022-10-22T19:10:00.125Z,14.13
2022-10-22T19:12:28.785Z,14.12
2022-10-22T19:14:56.025Z,14.08
2022-10-22T19:17:23.250Z,14.06
2022-10-22T19:19:50.529Z,14.06
2022-10-22T19:22:17.708Z,13.99
2022-10-22T19:24:44.904Z,13.94
2022-10-22T19:27:12.184Z,13.93
2022-10-22T19:29:40.739Z,13.87
2022-10-22T19:34:40.057Z,13.82
2022-10-22T19:37:07.361Z,13.79
2022-10-22T19:39:34.682Z,13.79
2022-10-22T19:42:01.894Z,13.77
2022-10-22T19:44:29.114Z,13.76
2022-10-22T19:46:57.645Z,13.75
2022-10-22T19:49:24.937Z,13.71
2022-10-22T19:51:52.214Z,13.70
2022-10-22T19:54:19.659Z,13.69
2022-10-22T19:56:47.932Z,13.64
2022-10-22T19:59:16.093Z,13.62
2022-10-22T20:01:43.426Z,13.57
2022-10-22T20:04:16.549Z,13.58
2022-10-22T20:06:44.472Z,13.54
2022-10-22T20:09:13.216Z,13.49
2022-10-22T20:11:40.520Z,13.52
2022-10-22T20:14:07.773Z,13.49
2022-10-22T20:16:35.020Z,13.44
2022-10-22T20:19:04.791Z,13.41
2022-10-22T20:21:33.997Z,13.47
2022-10-22T20:24:01.715Z,13.39
2022-10-22T20:26:29.321Z,13.40
2022-10-22T20:28:57.487Z,13.38
2022-10-22T20:31:27.072Z,13.36
2022-10-22T20:33:56.439Z,13.32
2022-10-22T20:36:24.025Z,13.34
2022-10-22T20:38:52.691Z,13.31
2022-10-22T20:41:21.566Z,13.33
2022-10-22T20:43:50.767Z,13.29
2022-10-22T20:46:20.921Z,13.32
2022-10-22T20:48:49.969Z,13.32
2022-10-22T20:51:17.188Z,13.32
2022-10-22T20:53:44.397Z,13.35
2022-10-22T20:56:13.714Z,13.31
2022-10-22T20:58:41.236Z,13.35
2022-10-22T21:01:09.519Z,13.27
2022-10-22T21:03:37.110Z,13.23
2022-10-22T21:06:05.579Z,13.26
2022-10-22T21:08:32.828Z,13.22
2022-10-22T21:11:00.120Z,13.21
2022-10-22T21:13:31.526Z,13.17
2022-10-22T21:15:58.906Z,13.21
2022-10-22T21:18:26.084Z,13.16
2022-10-22T21:20:53.279Z,13.13
2022-10-22T21:23:20.478Z,13.07
2022-10-22T21:25:53.542Z,12.97
2022-10-22T21:28:20.918Z,12.93
2022-10-22T21:30:49.546Z,12.92
2022-10-22T21:33:17.260Z,12.84
2022-10-22T21:35:50.229Z,12.83
2022-10-22T21:38:17.622Z,12.71
2022-10-22T21:40:44.901Z,12.73
2022-10-22T21:43:12.441Z,12.73
2022-10-22T21:45:39.956Z,12.67
2022-10-22T21:48:08.726Z,12.55
2022-10-22T21:50:38.691Z,12.61
2022-10-22T21:53:06.030Z,12.63
2022-10-22T21:55:37.705Z,12.57
2022-10-22T21:58:05.226Z,12.59
2022-10-22T22:00:32.649Z,12.59
2022-10-22T22:02:59.980Z,12.47
2022-10-22T22:05:29.462Z,12.48
2022-10-22T22:07:56.696Z,12.55
2022-10-22T22:10:30.598Z,12.47
2022-10-22T22:12:58.455Z,12.40
2022-10-22T22:15:25.737Z,12.43
2022-10-22T22:17:52.916Z,12.40
2022-10-22T22:20:20.244Z,12.44
2022-10-22T22:22:48.895Z,12.44
2022-10-22T22:25:16.258Z,12.45
2022-10-22T22:27:43.839Z,12.45
2022-10-22T22:30:11.947Z,12.51
2022-10-22T22:32:39.125Z,12.47
2022-10-22T22:35:06.818Z,12.42
2022-10-22T22:37:34.140Z,12.46
2022-10-22T22:40:02.745Z,12.45
2022-10-22T22:42:29.970Z,12.46
2022-10-22T22:44:57.930Z,12.46
2022-10-22T22:47:25.161Z,12.43
2022-10-22T22:49:52.456Z,12.45
2022-10-22T22:54:51.950Z,12.52
2022-10-22T22:57:20.534Z,12.54
2022-10-22T22:59:49.912Z,12.52
2022-10-22T23:02:17.351Z,12.53
2022-10-22T23:04:44.575Z,12.57
2022-10-22T23:07:11.794Z,12.55
2022-10-22T23:09:39.077Z,12.53
2022-10-22T23:12:06.568Z,12.59
2022-10-22T23:14:35.253Z,12.59
2022-10-22T23:17:02.480Z,12.60
2022-10-22T23:19:29.672Z,12.55
2022-10-22T23:21:57.124Z,12.57
2022-10-22T23:24:27.136Z,12.53
2022-10-22T23:26:55.955Z,12.53
2022-10-22T23:29:25.159Z,12.54
2022-10-22T23:31:55.009Z,12.54
2022-10-22T23:34:24.257Z,12.48
2022-10-22T23:36:52.745Z,12.46
2022-10-22T23:39:22.131Z,12.39
2022-10-22T23:41:49.920Z,12.41
2022-10-22T23:44:17.361Z,12.38
2022-10-22T23:46:44.590Z,12.36
2022-10-22T23:49:13.964Z,12.35
2022-10-22T23:51:41.473Z,12.27
2022-10-22T23:54:12.393Z,12.27
2022-10-22T23:56:39.819Z,12.22
2022-10-22T23:59:07.932Z,12.19
